createdAt,value
2019-04-05T00:00:36.132Z,8.43
2019-04-05T00:03:03.944Z,8.00
2019-04-05T00:05:38.052Z,8.43
2019-04-05T00:08:07.378Z,8.10
2019-04-05T00:10:36.668Z,7.83
2019-04-05T00:13:06.056Z,8.40
2019-04-05T00:15:38.002Z,7.97
2019-04-05T00:18:06.204Z,7.77
2019-04-05T00:20:35.452Z,8.20
2019-04-05T00:23:04.998Z,8.00
2019-04-05T00:25:34.700Z,9.03
2019-04-05T00:28:04.926Z,7.53
2019-04-05T00:30:34.199Z,7.90
2019-04-05T00:33:03.594Z,8.83
2019-04-05T00:35:35.374Z,8.47
2019-04-05T00:38:04.993Z,8.28
2019-04-05T00:40:34.480Z,8.00
2019-04-05T00:43:03.795Z,8.90
2019-04-05T00:45:33.026Z,9.07
2019-04-05T00:48:02.274Z,8.33
2019-04-05T00:50:31.512Z,7.73
2019-04-05T00:53:00.751Z,7.67
2019-04-05T00:55:29.988Z,8.67
2019-04-05T00:57:59.310Z,7.70
2019-04-05T01:00:28.662Z,7.63
2019-04-05T01:02:57.903Z,8.33
2019-04-05T01:05:27.264Z,7.83
2019-04-05T01:07:56.646Z,8.17
2019-04-05T01:10:25.972Z,9.03
2019-04-05T01:12:55.640Z,7.57
2019-04-05T01:15:24.864Z,7.83
2019-04-05T01:17:54.360Z,8.27
2019-04-05T01:20:25.534Z,8.47
2019-04-05T01:22:55.290Z,7.57
2019-04-05T01:25:25.599Z,7.87
2019-04-05T01:27:55.187Z,8.00
2019-04-05T01:30:24.429Z,8.07
2019-04-05T01:32:53.667Z,8.17
2019-04-05T01:35:22.907Z,8.37
2019-04-05T01:37:52.280Z,8.43
2019-04-05T01:40:21.509Z,8.35
2019-04-05T01:42:50.753Z,8.57
2019-04-05T01:45:20.347Z,9.40
2019-04-05T01:47:49.665Z,8.73
2019-04-05T01:50:19.094Z,7.80
2019-04-05T01:52:49.051Z,8.53
2019-04-05T01:55:18.317Z,8.60
2019-04-05T01:57:47.633Z,7.97
2019-04-05T02:00:17.231Z,8.03
2019-04-05T02:02:47.117Z,8.03
2019-04-05T02:05:16.993Z,8.47
2019-04-05T02:07:46.483Z,9.17
2019-04-05T02:10:16.056Z,8.87
2019-04-05T02:12:45.369Z,7.87
2019-04-05T02:15:25.869Z,9.10
2019-04-05T02:17:56.146Z,9.50
2019-04-05T02:20:25.843Z,8.20
2019-04-05T02:22:55.433Z,8.50
2019-04-05T02:25:26.002Z,9.53
2019-04-05T02:27:55.502Z,10.23
2019-04-05T02:30:25.295Z,8.87
2019-04-05T02:32:54.692Z,8.27
2019-04-05T02:35:24.123Z,8.27
2019-04-05T02:37:53.419Z,8.93
2019-04-05T02:40:25.594Z,8.98
2019-04-05T02:42:57.482Z,8.60
2019-04-05T02:45:29.778Z,9.13
2019-04-05T02:48:01.858Z,8.57
2019-04-05T02:50:33.926Z,9.27
2019-04-05T02:53:05.560Z,9.53
2019-04-05T02:55:36.216Z,10.13
2019-04-05T02:58:06.569Z,9.93
2019-04-05T03:00:35.967Z,10.17
2019-04-05T03:03:06.738Z,10.43
2019-04-05T03:05:37.331Z,10.50
2019-04-05T03:08:07.688Z,10.70
2019-04-05T03:11:04.216Z,9.70
2019-04-05T03:13:36.461Z,11.40
2019-04-05T03:16:08.910Z,11.70
2019-04-05T03:18:41.326Z,11.20
2019-04-05T03:21:12.101Z,10.37
2019-04-05T03:23:43.693Z,10.10
2019-04-05T03:26:16.260Z,11.57
2019-04-05T03:28:48.603Z,11.00
2019-04-05T03:31:24.015Z,11.38
2019-04-05T03:33:49.917Z,10.97
2019-04-05T03:36:19.752Z,11.53
2019-04-05T03:38:49.268Z,12.00
2019-04-05T03:41:18.756Z,10.33
2019-04-05T03:43:49.654Z,11.83
2019-04-05T03:46:19.641Z,11.45
2019-04-05T03:48:49.914Z,11.80
2019-04-05T03:51:19.743Z,10.80
2019-04-05T03:53:49.130Z,11.77
2019-04-05T03:56:18.542Z,11.90
2019-04-05T03:58:48.128Z,11.57
2019-04-05T04:01:17.754Z,12.03
2019-04-05T04:03:47.540Z,10.87
2019-04-05T04:06:16.902Z,13.03
2019-04-05T04:08:46.286Z,11.53
2019-04-05T04:11:15.845Z,13.17
2019-04-05T04:13:45.820Z,12.47
2019-04-05T04:16:15.424Z,12.27
2019-04-05T04:18:45.188Z,11.90
2019-04-05T04:21:29.530Z,11.63
2019-04-05T04:23:59.134Z,11.97
2019-04-05T04:26:28.613Z,12.93
2019-04-05T04:28:58.376Z,12.67
2019-04-05T04:31:28.063Z,11.37
2019-04-05T04:33:58.210Z,11.20
2019-04-05T04:36:27.713Z,12.23
2019-04-05T04:38:57.408Z,11.37
2019-04-05T04:41:27.321Z,12.50
2019-04-05T04:43:56.941Z,13.53
2019-04-05T04:46:26.539Z,11.43
2019-04-05T04:48:55.876Z,11.67
2019-04-05T04:51:25.600Z,11.03
2019-04-05T04:53:55.582Z,11.83
2019-04-05T04:56:24.964Z,11.20
2019-04-05T04:58:54.364Z,12.30
2019-04-05T05:01:23.608Z,10.93
2019-04-05T05:03:53.001Z,12.70
2019-04-05T05:06:22.367Z,10.53
2019-04-05T05:08:51.952Z,11.27
2019-04-05T05:11:21.552Z,11.60
2019-04-05T05:13:50.961Z,10.40
2019-04-05T05:16:20.262Z,10.83
2019-04-05T05:18:49.763Z,12.23
2019-04-05T05:21:19.080Z,11.27
2019-04-05T05:23:48.448Z,10.90
2019-04-05T05:26:18.074Z,11.00
2019-04-05T05:28:47.574Z,11.00
2019-04-05T05:31:16.949Z,12.00
2019-04-05T05:33:46.594Z,12.57
2019-04-05T05:36:15.992Z,10.80
2019-04-05T05:38:45.307Z,12.23
2019-04-05T05:41:14.682Z,10.47
2019-04-05T05:43:43.990Z,9.77
2019-04-05T05:46:13.328Z,9.73
2019-04-05T05:48:44.296Z,9.10
2019-04-05T05:51:14.595Z,10.05
2019-04-05T05:53:44.127Z,10.40
2019-04-05T05:56:13.359Z,10.47
2019-04-05T05:58:42.611Z,9.70
2019-04-05T06:01:11.840Z,9.33
2019-04-05T06:03:41.094Z,9.50
2019-04-05T06:06:10.327Z,10.23
2019-04-05T06:08:39.591Z,10.03
2019-04-05T06:11:08.812Z,9.90
2019-04-05T06:13:38.049Z,9.30
2019-04-05T06:16:07.290Z,8.57
2019-04-05T06:18:36.551Z,8.93
2019-04-05T06:21:05.798Z,8.33
2019-04-05T06:23:35.033Z,8.33
2019-04-05T06:26:05.311Z,8.63
2019-04-05T06:28:34.641Z,8.13
2019-04-05T06:31:04.021Z,9.60
2019-04-05T06:33:35.712Z,9.63
2019-04-05T06:36:04.350Z,8.53
2019-04-05T06:38:33.569Z,8.20
2019-04-05T06:41:02.825Z,8.83
2019-04-05T06:43:32.072Z,8.50
2019-04-05T06:46:01.402Z,9.63
2019-04-05T06:48:30.852Z,8.83
2019-04-05T06:51:00.119Z,9.40
2019-04-05T06:53:29.430Z,8.20
2019-04-05T06:55:59.972Z,9.53
2019-04-05T06:58:29.646Z,8.83
2019-04-05T07:00:58.908Z,9.70
2019-04-05T07:03:28.159Z,8.70
2019-04-05T07:05:57.399Z,9.00
2019-04-05T07:08:26.647Z,9.53
2019-04-05T07:10:55.885Z,9.73
2019-04-05T07:13:27.435Z,9.40
2019-04-05T07:15:56.111Z,8.13
2019-04-05T07:18:34.162Z,7.97
2019-04-05T07:20:57.850Z,7.50
2019-04-05T07:23:27.375Z,7.73
2019-04-05T07:25:56.607Z,8.03
2019-04-05T07:28:25.847Z,8.30
2019-04-05T07:30:55.074Z,8.17
2019-04-05T07:33:24.325Z,8.27
2019-04-05T07:35:53.562Z,8.23
2019-04-05T07:38:22.798Z,8.35
2019-04-05T07:40:52.115Z,6.93
2019-04-05T07:43:21.481Z,7.37
2019-04-05T07:45:50.776Z,6.57
2019-04-05T07:48:20.079Z,6.83
2019-04-05T07:50:49.306Z,7.47
2019-04-05T07:53:18.536Z,7.43
2019-04-05T07:55:49.965Z,8.70
2019-04-05T07:58:19.209Z,8.83
2019-04-05T08:00:55.858Z,9.10
2019-04-05T08:03:25.194Z,9.77
2019-04-05T08:05:54.859Z,8.63
2019-04-05T08:08:38.810Z,9.23
2019-04-05T08:11:08.487Z,10.60
2019-04-05T08:13:40.596Z,9.77
2019-04-05T08:16:09.836Z,9.77
2019-04-05T08:18:39.158Z,9.87
2019-04-05T08:21:08.398Z,9.30
2019-04-05T08:23:37.822Z,10.10
2019-04-05T08:26:07.083Z,9.00
2019-04-05T08:28:36.314Z,8.43
2019-04-05T08:31:05.561Z,9.93
2019-04-05T08:33:36.382Z,8.20
2019-04-05T08:36:05.924Z,9.03
2019-04-05T08:38:35.168Z,7.70
2019-04-05T08:41:04.863Z,8.80
2019-04-05T08:43:34.143Z,9.03
2019-04-05T08:46:03.426Z,8.87
2019-04-05T08:48:32.672Z,8.57
2019-04-05T08:51:01.921Z,9.00
2019-04-05T08:53:31.147Z,7.23
2019-04-05T08:56:00.380Z,7.63
2019-04-05T08:58:33.655Z,9.77
2019-04-05T09:01:00.624Z,8.00
2019-04-05T09:03:29.895Z,8.07
2019-04-05T09:05:59.131Z,9.77
2019-04-05T09:08:28.438Z,9.73
2019-04-05T09:10:57.757Z,9.43
2019-04-05T09:13:26.995Z,10.93
2019-04-05T09:15:56.241Z,12.07
2019-04-05T09:18:25.505Z,12.50
2019-04-05T09:20:54.746Z,11.33
2019-04-05T09:23:23.990Z,12.00
2019-04-05T09:25:53.229Z,9.07
2019-04-05T09:28:22.465Z,10.00
2019-04-05T09:30:52.109Z,11.77
2019-04-05T09:33:21.566Z,10.87
2019-04-05T09:35:50.871Z,9.77
2019-04-05T09:38:20.128Z,11.38
2019-04-05T09:40:49.465Z,12.80
2019-04-05T09:43:18.712Z,9.57
2019-04-05T09:45:47.956Z,9.00
2019-04-05T09:48:17.192Z,9.63
2019-04-05T09:50:46.421Z,11.93
2019-04-05T09:53:15.665Z,10.87
2019-04-05T09:55:44.922Z,10.30
2019-04-05T09:58:14.335Z,9.23
2019-04-05T10:00:43.619Z,9.67
2019-04-05T10:03:12.983Z,13.15
2019-04-05T10:05:42.230Z,10.63
2019-04-05T10:08:11.688Z,9.90
2019-04-05T10:10:40.997Z,13.03
2019-04-05T10:13:10.345Z,12.60
2019-04-05T10:15:57.787Z,10.70
2019-04-05T10:18:45.066Z,10.10
2019-04-05T10:21:32.180Z,8.90
2019-04-05T10:24:19.842Z,8.97
2019-04-05T10:27:07.290Z,10.60
2019-04-05T10:29:55.095Z,9.10
2019-04-05T10:32:42.694Z,9.73
2019-04-05T10:35:31.488Z,9.27
2019-04-05T10:38:18.973Z,10.53
2019-04-05T10:41:06.390Z,9.07
2019-04-05T10:43:53.674Z,10.07
2019-04-05T10:46:40.785Z,7.93
2019-04-05T10:49:27.875Z,7.77
2019-04-05T10:52:15.090Z,7.60
2019-04-05T10:55:02.258Z,8.53
2019-04-05T10:57:49.627Z,8.53
2019-04-05T11:00:36.983Z,9.43
2019-04-05T11:03:24.277Z,8.50
2019-04-05T11:06:11.169Z,8.65
2019-04-05T11:08:58.372Z,7.83
2019-04-05T11:11:45.810Z,8.00
2019-04-05T11:14:33.185Z,7.23
2019-04-05T11:17:20.425Z,7.37
2019-04-05T11:20:21.266Z,7.03
2019-04-05T11:23:00.101Z,7.63
2019-04-05T11:25:29.334Z,6.90
2019-04-05T11:27:58.649Z,7.70
2019-04-05T11:30:39.932Z,7.43
2019-04-05T11:33:09.431Z,7.27
2019-04-05T11:35:39.011Z,7.90
2019-04-05T11:38:08.591Z,7.33
2019-04-05T11:40:38.883Z,8.23
2019-04-05T11:43:08.209Z,8.00
2019-04-05T11:45:37.499Z,7.17
2019-04-05T11:48:07.083Z,8.33
2019-04-05T11:50:36.391Z,7.90
2019-04-05T11:53:05.873Z,8.73
2019-04-05T11:55:35.110Z,6.73
2019-04-05T11:58:04.510Z,8.23
2019-04-05T12:00:41.028Z,6.53
2019-04-05T12:03:15.068Z,7.30
2019-04-05T12:05:44.377Z,8.27
2019-04-05T12:08:13.635Z,7.50
2019-04-05T12:10:42.893Z,6.70
2019-04-05T12:13:12.158Z,6.60
2019-04-05T12:15:41.399Z,6.97
2019-04-05T12:18:10.756Z,7.97
2019-04-05T12:20:49.066Z,7.23
2019-04-05T12:23:11.010Z,6.87
2019-04-05T12:25:40.271Z,8.13
2019-04-05T12:28:10.700Z,5.63
2019-04-05T12:30:41.937Z,6.13
2019-04-05T12:33:14.157Z,6.63
2019-04-05T12:35:42.475Z,5.97
2019-04-05T12:38:11.116Z,6.60
2019-04-05T12:40:40.765Z,6.30
2019-04-05T12:43:13.398Z,6.70
2019-04-05T12:45:44.377Z,6.07
2019-04-05T12:48:13.684Z,6.30
2019-04-05T12:50:44.989Z,7.10
2019-04-05T12:53:14.419Z,7.93
2019-04-05T12:55:43.729Z,7.60
2019-04-05T12:58:12.988Z,7.13
2019-04-05T13:00:42.307Z,7.27
2019-04-05T13:03:11.525Z,6.40
2019-04-05T13:05:40.785Z,6.27
2019-04-05T13:08:10.020Z,6.30
2019-04-05T13:10:39.278Z,7.83
2019-04-05T13:13:08.619Z,6.07
2019-04-05T13:15:39.956Z,7.30
2019-04-05T13:18:08.823Z,6.53
2019-04-05T13:20:38.378Z,6.90
2019-04-05T13:23:07.668Z,6.33
2019-04-05T13:25:38.759Z,7.43
2019-04-05T13:28:13.117Z,6.73
2019-04-05T13:30:38.872Z,6.53
2019-04-05T13:33:08.130Z,6.43
2019-04-05T13:35:37.361Z,7.47
2019-04-05T13:38:06.600Z,7.30
2019-04-05T13:40:36.054Z,7.90
2019-04-05T13:43:05.827Z,6.70
2019-04-05T13:45:35.074Z,7.40
2019-04-05T13:48:04.385Z,6.67
2019-04-05T13:50:33.640Z,6.80
2019-04-05T13:53:02.856Z,7.13
2019-04-05T13:55:32.092Z,6.47
2019-04-05T13:58:01.332Z,5.70
2019-04-05T14:00:30.776Z,6.37
2019-04-05T14:02:59.996Z,6.17
2019-04-05T14:05:29.230Z,6.70
2019-04-05T14:08:10.039Z,6.20
2019-04-05T14:10:29.415Z,6.70
2019-04-05T14:12:58.730Z,8.57
2019-04-05T14:15:27.966Z,6.83
2019-04-05T14:17:57.192Z,7.13
2019-04-05T14:20:26.430Z,9.20
2019-04-05T14:22:55.660Z,6.83
2019-04-05T14:25:26.055Z,7.43
2019-04-05T14:27:55.826Z,6.70
2019-04-05T14:30:25.129Z,6.73
2019-04-05T14:32:55.750Z,7.20
2019-04-05T14:35:25.581Z,6.20
2019-04-05T14:37:55.209Z,6.00
2019-04-05T14:40:28.350Z,5.77
2019-04-05T14:42:55.588Z,5.70
2019-04-05T14:45:24.916Z,4.93
2019-04-05T14:47:57.631Z,6.07
2019-04-05T14:50:25.060Z,5.50
2019-04-05T14:52:54.315Z,4.90
2019-04-05T14:55:23.538Z,4.80
2019-04-05T14:57:52.758Z,5.40
2019-04-05T15:00:22.236Z,4.63
2019-04-05T15:02:51.537Z,5.07
2019-04-05T15:05:20.870Z,4.80
2019-04-05T15:07:51.188Z,4.43
2019-04-05T15:10:24.728Z,4.53
2019-04-05T15:12:52.134Z,6.40
2019-04-05T15:15:21.361Z,5.03
2019-04-05T15:17:50.616Z,5.33
2019-04-05T15:20:20.157Z,7.60
2019-04-05T15:22:49.455Z,6.80
2019-04-05T15:25:21.557Z,6.10
2019-04-05T15:27:53.823Z,9.90
2019-04-05T15:30:21.151Z,9.73
2019-04-05T15:32:51.472Z,9.23
2019-04-05T15:35:20.944Z,7.97
2019-04-05T15:37:50.211Z,8.60
2019-04-05T15:40:19.672Z,10.05
2019-04-05T15:42:48.921Z,9.28
2019-04-05T15:45:18.425Z,8.60
2019-04-05T15:47:47.680Z,8.57
2019-04-05T15:50:19.699Z,6.97
2019-04-05T15:52:49.719Z,8.03
2019-04-05T15:55:18.949Z,8.20
2019-04-05T15:57:48.187Z,8.23
2019-04-05T16:00:21.197Z,7.17
2019-04-05T16:02:50.507Z,8.13
2019-04-05T16:05:20.387Z,7.17
2019-04-05T16:07:49.643Z,7.73
2019-04-05T16:10:19.040Z,7.13
2019-04-05T16:12:48.263Z,7.80
2019-04-05T16:15:17.677Z,7.70
2019-04-05T16:17:46.913Z,8.00
2019-04-05T16:20:17.039Z,7.77
2019-04-05T16:22:46.289Z,8.40
2019-04-05T16:25:15.651Z,8.07
2019-04-05T16:27:44.891Z,7.30
2019-04-05T16:30:14.470Z,7.50
2019-04-05T16:32:43.706Z,8.70
2019-04-05T16:35:14.555Z,9.07
2019-04-05T16:37:43.973Z,7.33
2019-04-05T16:40:13.981Z,7.53
2019-04-05T16:42:43.205Z,6.30
2019-04-05T16:45:13.553Z,8.10
2019-04-05T16:47:42.909Z,6.90
2019-04-05T16:50:12.679Z,6.77
2019-04-05T16:52:45.249Z,6.03
2019-04-05T16:55:13.892Z,6.40
2019-04-05T16:57:43.193Z,7.30
2019-04-05T17:00:13.625Z,5.40
2019-04-05T17:02:42.880Z,5.70
2019-04-05T17:05:12.220Z,5.77
2019-04-05T17:07:41.554Z,5.80
2019-04-05T17:10:11.301Z,5.80
2019-04-05T17:12:40.654Z,5.13
2019-04-05T17:15:11.182Z,4.53
2019-04-05T17:17:40.481Z,4.87
2019-04-05T17:20:10.545Z,5.00
2019-04-05T17:22:39.831Z,4.23
2019-04-05T17:25:09.497Z,4.63
2019-04-05T17:27:38.744Z,4.33
2019-04-05T17:30:08.532Z,4.67
2019-04-05T17:32:37.756Z,4.50
2019-04-05T17:35:07.231Z,4.10
2019-04-05T17:37:36.537Z,4.50
2019-04-05T17:40:07.738Z,4.92
2019-04-05T17:42:37.161Z,5.03
2019-04-05T17:45:08.514Z,4.73
2019-04-05T17:47:37.747Z,5.00
2019-04-05T17:50:10.407Z,5.10
2019-04-05T17:52:38.768Z,4.80
2019-04-05T17:55:08.108Z,5.30
2019-04-05T17:57:37.435Z,5.33
2019-04-05T18:00:09.689Z,6.07
2019-04-05T18:02:38.910Z,4.27
2019-04-05T18:05:08.481Z,5.23
2019-04-05T18:07:37.743Z,5.87
2019-04-05T18:10:07.226Z,5.47
2019-04-05T18:12:36.480Z,6.43
2019-04-05T18:15:06.800Z,8.53
2019-04-05T18:17:36.504Z,9.27
2019-04-05T18:20:09.791Z,11.17
2019-04-05T18:22:38.410Z,10.33
2019-04-05T18:25:08.087Z,10.60
2019-04-05T18:27:37.438Z,9.87
2019-04-05T18:30:08.125Z,11.70
2019-04-05T18:32:37.413Z,11.67
2019-04-05T18:35:07.215Z,10.80
2019-04-05T18:37:36.470Z,12.87
2019-04-05T18:40:07.878Z,9.97
2019-04-05T18:42:37.168Z,11.27
2019-04-05T18:45:09.840Z,11.87
2019-04-05T18:47:58.414Z,11.43
2019-04-05T18:50:27.830Z,10.03
2019-04-05T18:52:57.154Z,10.30
2019-04-05T18:55:26.476Z,9.23
2019-04-05T18:57:55.702Z,10.30
2019-04-05T19:00:25.411Z,11.30
2019-04-05T19:02:54.881Z,10.67
2019-04-05T19:05:24.135Z,10.17
2019-04-05T19:07:53.377Z,11.93
2019-04-05T19:10:22.697Z,11.40
2019-04-05T19:12:52.101Z,9.97
2019-04-05T19:15:21.393Z,10.88
2019-04-05T19:17:50.623Z,11.60
2019-04-05T19:20:19.886Z,12.23
2019-04-05T19:22:49.116Z,11.97
2019-04-05T19:25:18.375Z,13.50
2019-04-05T19:27:47.740Z,12.07
2019-04-05T19:50:24.764Z,12.43
2019-04-05T19:52:54.028Z,12.20
2019-04-05T19:55:23.252Z,11.87
2019-04-05T19:57:52.490Z,11.23
2019-04-05T20:00:21.751Z,12.47
2019-04-05T20:02:51.003Z,10.67
2019-04-05T20:05:20.221Z,11.63
2019-04-05T20:07:49.488Z,14.73
2019-04-05T20:10:18.729Z,14.33
2019-04-05T20:12:47.967Z,12.50
2019-04-05T20:15:17.274Z,13.87
2019-04-05T20:17:46.565Z,14.13
2019-04-05T20:20:16.172Z,13.10
2019-04-05T20:22:45.391Z,12.33
2019-04-05T20:25:14.677Z,12.60
2019-04-05T20:27:43.960Z,12.53
2019-04-05T20:30:13.476Z,12.03
2019-04-05T20:32:42.744Z,11.43
2019-04-05T20:35:12.003Z,11.97
2019-04-05T20:37:41.215Z,11.17
2019-04-05T20:40:11.937Z,11.80
2019-04-05T20:42:41.471Z,11.53
2019-04-05T20:45:10.873Z,11.60
2019-04-05T20:47:40.222Z,11.10
2019-04-05T20:50:09.864Z,11.40
2019-04-05T20:53:35.507Z,11.13
2019-04-05T20:56:05.780Z,12.37
2019-04-05T20:58:36.070Z,10.40
2019-04-05T21:01:07.432Z,10.73
2019-04-05T21:03:37.673Z,10.87
2019-04-05T21:06:07.924Z,9.80
2019-04-05T21:08:38.225Z,10.87
2019-04-05T21:11:08.470Z,10.43
2019-04-05T21:13:38.705Z,11.00
2019-04-05T21:16:09.121Z,11.93
2019-04-05T21:18:39.719Z,10.60
2019-04-05T21:21:09.945Z,11.30
2019-04-05T21:23:40.236Z,11.00
2019-04-05T21:26:10.944Z,10.77
2019-04-05T21:28:41.210Z,11.43
2019-04-05T21:31:11.410Z,10.20
2019-04-05T21:33:41.625Z,10.07
2019-04-05T21:36:11.830Z,9.70
2019-04-05T21:38:42.030Z,10.77
2019-04-05T21:41:13.289Z,10.65
2019-04-05T21:43:43.528Z,10.50
2019-04-05T21:46:13.726Z,11.47
2019-04-05T21:48:43.930Z,11.07
2019-04-05T21:51:14.128Z,11.10
2019-04-05T21:53:44.354Z,11.43
2019-04-05T21:56:14.817Z,12.80
2019-04-05T21:58:45.042Z,13.30
2019-04-05T22:01:15.626Z,11.50
2019-04-05T22:03:45.841Z,12.47
2019-04-05T22:06:16.176Z,12.33
2019-04-05T22:08:46.440Z,14.38
2019-04-05T22:11:16.895Z,14.67
2019-04-05T22:13:47.115Z,13.97
2019-04-05T22:16:17.310Z,13.67
2019-04-05T22:18:47.535Z,12.90
2019-04-05T22:21:17.752Z,12.82
2019-04-05T22:23:47.976Z,14.30
2019-04-05T22:26:18.284Z,13.13
2019-04-05T22:28:48.499Z,13.98
2019-04-05T22:31:18.709Z,12.33
2019-04-05T22:33:48.900Z,12.93
2019-04-05T22:36:19.125Z,13.40
2019-04-05T22:38:49.345Z,12.33
2019-04-05T22:41:19.562Z,12.10
2019-04-05T22:43:49.803Z,14.47
2019-04-05T22:46:20.022Z,13.33
2019-04-05T22:48:50.248Z,15.27
2019-04-05T22:51:20.455Z,14.73
2019-04-05T22:53:50.647Z,12.90
2019-04-05T22:56:20.886Z,13.43
2019-04-05T22:58:51.081Z,14.93
2019-04-05T23:01:21.298Z,12.05
2019-04-05T23:03:51.524Z,14.03
2019-04-05T23:06:21.725Z,12.73
2019-04-05T23:08:51.953Z,13.47
2019-04-05T23:11:22.156Z,15.43
2019-04-05T23:13:52.394Z,13.83
2019-04-05T23:16:22.592Z,15.17
2019-04-05T23:18:52.808Z,15.50
2019-04-05T23:21:23.008Z,14.87
2019-04-05T23:23:53.241Z,13.80
2019-04-05T23:26:23.489Z,15.70
2019-04-05T23:28:53.761Z,15.43
2019-04-05T23:31:24.039Z,15.10
2019-04-05T23:33:54.260Z,15.67
2019-04-05T23:36:24.459Z,16.73
2019-04-05T23:38:54.675Z,16.30
2019-04-05T23:41:24.947Z,15.15
2019-04-05T23:43:55.182Z,15.23
2019-04-05T23:46:25.470Z,15.68
2019-04-05T23:48:55.695Z,15.73
2019-04-05T23:51:25.979Z,15.60
2019-04-05T23:53:56.231Z,13.43
2019-04-05T23:56:26.565Z,12.57
2019-04-05T23:58:56.811Z,12.97
